createdAt,value
2022-08-23T00:01:43.839Z,11.63
2022-08-23T00:04:20.078Z,1.75
2022-08-23T00:06:49.919Z,5.90
2022-08-23T00:09:20.189Z,1.73
2022-08-23T00:11:52.918Z,2.08
2022-08-23T00:14:30.160Z,3.28
2022-08-23T00:17:01.010Z,1.75
2022-08-23T00:19:28.809Z,3.88
2022-08-23T00:21:56.863Z,2.42
2022-08-23T00:24:26.064Z,1.58
2022-08-23T00:27:10.361Z,3.70
2022-08-23T00:29:44.549Z,1.55
2022-08-23T00:32:18.269Z,3.90
2022-08-23T00:34:45.799Z,2.97
2022-08-23T00:37:14.573Z,7.95
2022-08-23T00:39:42.669Z,7.03
2022-08-23T00:42:52.064Z,2.03
2022-08-23T00:45:46.514Z,2.10
2022-08-23T00:48:14.557Z,7.07
2022-08-23T00:51:19.085Z,1.70
2022-08-23T00:53:55.975Z,5.45
2022-08-23T00:56:27.873Z,2.72
2022-08-23T00:58:58.448Z,2.55
2022-08-23T01:01:26.955Z,1.65
2022-08-23T01:04:04.358Z,1.52
2022-08-23T01:06:44.134Z,4.13
2022-08-23T01:09:21.229Z,1.95
2022-08-23T01:11:59.380Z,1.63
2022-08-23T01:14:38.590Z,1.90
2022-08-23T01:17:21.346Z,2.60
2022-08-23T01:20:07.326Z,4.15
2022-08-23T01:22:58.991Z,3.55
2022-08-23T01:25:30.492Z,6.15
2022-08-23T01:27:59.426Z,11.57
2022-08-23T01:30:32.666Z,3.63
2022-08-23T01:33:06.667Z,3.00
2022-08-23T01:35:53.504Z,4.32
2022-08-23T01:38:22.567Z,2.78
2022-08-23T01:40:51.488Z,2.25
2022-08-23T01:43:21.759Z,5.80
2022-08-23T01:45:53.474Z,2.53
2022-08-23T01:48:24.347Z,2.13
2022-08-23T01:50:52.182Z,4.05
2022-08-23T01:53:20.152Z,3.50
2022-08-23T01:55:50.582Z,2.45
2022-08-23T01:58:21.460Z,4.60
2022-08-23T02:00:49.397Z,3.08
2022-08-23T02:03:17.161Z,6.05
2022-08-23T02:05:45.836Z,2.70
2022-08-23T02:08:32.833Z,3.73
2022-08-23T02:13:41.587Z,4.55
2022-08-23T02:16:14.882Z,3.38
2022-08-23T02:18:43.435Z,5.78
2022-08-23T02:21:11.624Z,6.82
2022-08-23T02:23:39.812Z,3.05
2022-08-23T02:26:07.353Z,5.70
2022-08-23T02:28:34.948Z,3.65
2022-08-23T02:31:02.950Z,6.15
2022-08-23T02:33:31.567Z,3.20
2022-08-23T02:35:59.422Z,6.15
2022-08-23T02:38:27.213Z,3.78
2022-08-23T02:41:00.663Z,4.25
2022-08-23T02:43:30.306Z,5.32
2022-08-23T02:45:57.807Z,3.85
2022-08-23T02:48:25.867Z,3.30
2022-08-23T02:51:06.322Z,4.10
2022-08-23T02:53:34.944Z,4.43
2022-08-23T02:56:07.073Z,3.78
2022-08-23T02:58:54.450Z,4.10
2022-08-23T03:01:32.469Z,3.80
2022-08-23T03:04:11.178Z,3.90
2022-08-23T03:06:39.831Z,4.13
2022-08-23T03:09:08.993Z,4.03
2022-08-23T03:14:04.926Z,3.35
2022-08-23T03:16:33.058Z,2.95
2022-08-23T03:19:02.352Z,3.58
2022-08-23T03:21:31.265Z,3.63
2022-08-23T03:24:00.822Z,3.58
2022-08-23T03:26:31.414Z,3.30
2022-08-23T03:28:59.392Z,3.70
2022-08-23T03:31:31.367Z,3.15
2022-08-23T03:34:07.899Z,3.17
2022-08-23T03:36:35.879Z,3.53
2022-08-23T03:39:06.149Z,3.15
2022-08-23T03:41:34.181Z,5.68
2022-08-23T03:44:01.960Z,3.17
2022-08-23T03:46:34.205Z,5.78
2022-08-23T03:49:04.301Z,3.45
2022-08-23T03:52:00.357Z,5.35
2022-08-23T03:54:32.530Z,4.82
2022-08-23T03:57:05.050Z,3.60
2022-08-23T03:59:38.187Z,4.65
2022-08-23T04:02:09.695Z,3.90
2022-08-23T04:04:37.923Z,3.63
2022-08-23T04:07:28.713Z,5.05
2022-08-23T04:09:58.907Z,3.20
2022-08-23T04:12:31.754Z,4.13
2022-08-23T04:14:59.913Z,5.40
2022-08-23T04:17:32.150Z,5.20
2022-08-23T04:20:01.267Z,4.13
2022-08-23T04:22:29.757Z,4.00
2022-08-23T04:24:57.713Z,4.18
2022-08-23T04:27:25.706Z,3.97
2022-08-23T04:29:53.930Z,4.03
2022-08-23T04:32:26.611Z,4.10
2022-08-23T04:34:58.509Z,4.25
2022-08-23T04:37:26.199Z,6.25
2022-08-23T04:40:12.452Z,4.13
2022-08-23T04:42:43.412Z,4.93
2022-08-23T04:45:12.435Z,5.53
2022-08-23T04:47:44.903Z,7.40
2022-08-23T04:50:12.690Z,3.47
2022-08-23T04:52:59.294Z,4.40
2022-08-23T04:55:29.135Z,5.47
2022-08-23T04:58:07.554Z,5.82
2022-08-23T05:00:44.636Z,3.90
2022-08-23T05:03:14.348Z,4.18
2022-08-23T05:05:42.594Z,5.05
2022-08-23T05:08:10.826Z,11.75
2022-08-23T05:10:38.882Z,6.30
2022-08-23T05:13:06.402Z,5.25
2022-08-23T05:15:33.825Z,4.85
2022-08-23T05:18:06.586Z,6.20
2022-08-23T05:20:36.734Z,5.63
2022-08-23T05:23:04.310Z,4.97
2022-08-23T05:25:53.153Z,5.65
2022-08-23T05:28:49.606Z,5.57
2022-08-23T05:31:24.196Z,4.35
2022-08-23T05:33:59.097Z,4.90
2022-08-23T05:36:55.361Z,7.40
2022-08-23T05:39:36.222Z,7.80
2022-08-23T05:42:12.776Z,5.18
2022-08-23T05:44:41.796Z,5.53
2022-08-23T05:47:15.847Z,4.93
2022-08-23T05:50:16.031Z,5.30
2022-08-23T05:52:45.867Z,5.70
2022-08-23T05:55:16.928Z,6.28
2022-08-23T05:57:55.311Z,7.23
2022-08-23T06:00:23.249Z,5.28
2022-08-23T06:03:05.187Z,5.65
2022-08-23T06:05:32.730Z,5.90
2022-08-23T06:08:01.723Z,5.55
2022-08-23T06:10:29.729Z,5.50
2022-08-23T06:13:04.487Z,7.10
2022-08-23T06:15:32.741Z,5.85
2022-08-23T06:18:00.382Z,5.30
2022-08-23T06:20:28.216Z,6.07
2022-08-23T06:23:01.945Z,5.93
2022-08-23T06:25:29.993Z,5.15
2022-08-23T06:28:08.125Z,6.03
2022-08-23T06:30:40.070Z,5.18
2022-08-23T06:33:21.730Z,5.60
2022-08-23T06:36:18.560Z,6.63
2022-08-23T06:39:28.743Z,6.20
2022-08-23T06:42:37.481Z,5.53
2022-08-23T06:45:06.544Z,5.55
2022-08-23T06:47:43.605Z,5.07
2022-08-23T06:50:11.751Z,5.85
2022-08-23T06:52:58.309Z,5.90
2022-08-23T06:55:44.715Z,6.03
2022-08-23T06:58:22.399Z,5.05
2022-08-23T07:01:50.176Z,5.80
2022-08-23T07:04:31.833Z,6.38
2022-08-23T07:10:08.044Z,6.47
2022-08-23T07:12:42.639Z,6.47
2022-08-23T07:15:12.689Z,8.52
2022-08-23T07:17:43.628Z,6.38
2022-08-23T07:20:11.161Z,6.18
2022-08-23T07:22:41.333Z,7.00
2022-08-23T07:25:10.822Z,7.32
2022-08-23T07:27:40.312Z,5.78
2022-08-23T07:30:09.901Z,7.25
2022-08-23T07:32:40.676Z,10.25
2022-08-23T07:35:32.439Z,6.68
2022-08-23T07:38:02.899Z,7.75
2022-08-23T07:40:38.771Z,7.45
2022-08-23T07:43:09.025Z,7.95
2022-08-23T07:45:40.629Z,7.22
2022-08-23T07:48:12.189Z,6.43
2022-08-23T07:51:07.347Z,8.07
2022-08-23T07:53:37.736Z,6.57
2022-08-23T07:56:11.416Z,7.90
2022-08-23T07:59:03.822Z,9.40
2022-08-23T08:01:38.386Z,11.82
2022-08-23T08:04:08.257Z,8.05
2022-08-23T08:07:04.935Z,10.85
2022-08-23T08:09:40.183Z,9.73
2022-08-23T08:12:08.970Z,9.27
2022-08-23T08:14:38.123Z,9.93
2022-08-23T08:17:06.948Z,9.50
2022-08-23T08:19:57.326Z,9.93
2022-08-23T08:22:47.574Z,10.70
2022-08-23T08:25:35.051Z,10.70
2022-08-23T08:28:06.283Z,10.68
2022-08-23T08:30:34.085Z,10.70
2022-08-23T08:33:03.975Z,10.20
2022-08-23T08:35:33.485Z,9.13
2022-08-23T08:38:03.762Z,12.60
2022-08-23T08:40:37.578Z,11.73
2022-08-23T08:43:34.283Z,9.57
2022-08-23T08:46:27.996Z,10.65
2022-08-23T08:49:01.528Z,11.70
2022-08-23T08:52:10.785Z,12.30
2022-08-23T08:54:44.906Z,12.73
2022-08-23T08:57:25.488Z,12.90
2022-08-23T09:00:02.813Z,16.55
2022-08-23T09:02:35.294Z,14.38
2022-08-23T09:05:27.039Z,13.77
2022-08-23T09:08:19.378Z,12.90
2022-08-23T09:11:22.669Z,11.40
2022-08-23T09:13:53.744Z,11.20
2022-08-23T09:16:31.880Z,11.70
2022-08-23T09:19:02.664Z,13.43
2022-08-23T09:21:50.750Z,10.82
2022-08-23T09:24:18.623Z,10.27
2022-08-23T09:26:58.867Z,9.63
2022-08-23T09:29:35.451Z,10.55
2022-08-23T09:32:30.973Z,10.52
2022-08-23T09:35:23.051Z,11.82
2022-08-23T09:38:15.387Z,11.82
2022-08-23T09:40:51.217Z,10.88
2022-08-23T09:43:26.211Z,11.43
2022-08-23T09:45:59.561Z,11.70
2022-08-23T09:48:46.870Z,11.90
2022-08-23T09:51:41.584Z,15.07
2022-08-23T09:54:33.952Z,12.25
2022-08-23T09:57:10.325Z,9.75
2022-08-23T09:59:51.725Z,9.52
2022-08-23T10:02:31.628Z,10.38
2022-08-23T10:05:37.837Z,8.82
2022-08-23T10:08:10.653Z,9.77
2022-08-23T10:10:51.824Z,8.80
2022-08-23T10:13:27.891Z,9.23
2022-08-23T10:16:04.747Z,7.88
2022-08-23T10:19:03.368Z,8.65
2022-08-23T10:21:51.458Z,9.00
2022-08-23T10:24:46.083Z,8.25
2022-08-23T10:28:03.807Z,8.75
2022-08-23T10:30:54.636Z,8.95
2022-08-23T10:33:55.167Z,9.05
2022-08-23T10:36:56.770Z,8.90
2022-08-23T10:39:30.270Z,8.85
2022-08-23T10:42:17.011Z,8.95
2022-08-23T10:45:15.235Z,9.57
2022-08-23T10:47:54.321Z,10.38
2022-08-23T10:50:22.932Z,8.77
2022-08-23T10:53:13.760Z,9.13
2022-08-23T10:56:02.917Z,8.63
2022-08-23T10:59:08.341Z,8.23
2022-08-23T11:01:46.622Z,12.60
2022-08-23T11:07:43.133Z,9.27
2022-08-23T11:10:39.331Z,9.65
2022-08-23T11:13:15.120Z,8.18
2022-08-23T11:15:58.676Z,14.13
2022-08-23T11:18:47.678Z,12.48
2022-08-23T11:21:30.768Z,9.70
2022-08-23T11:24:03.207Z,9.93
2022-08-23T11:26:41.327Z,12.40
2022-08-23T11:29:22.221Z,11.27
2022-08-23T11:32:33.443Z,12.20
2022-08-23T11:35:50.462Z,14.07
2022-08-23T11:38:47.509Z,9.13
2022-08-23T11:41:19.393Z,9.77
2022-08-23T11:43:56.579Z,10.13
2022-08-23T11:46:27.582Z,10.88
2022-08-23T11:49:29.499Z,16.33
2022-08-23T11:52:36.979Z,12.15
2022-08-23T11:55:53.241Z,15.13
2022-08-23T11:58:34.763Z,12.20
2022-08-23T12:01:10.879Z,15.85
2022-08-23T12:03:59.191Z,10.32
2022-08-23T12:06:51.494Z,13.40
2022-08-23T12:09:20.526Z,12.93
2022-08-23T12:11:56.624Z,13.50
2022-08-23T12:14:40.214Z,11.60
2022-08-23T12:17:16.914Z,7.82
2022-08-23T12:20:13.161Z,11.15
2022-08-23T12:23:15.451Z,10.05
2022-08-23T12:25:43.946Z,8.55
2022-08-23T12:28:33.302Z,7.88
2022-08-23T12:31:14.492Z,7.63
2022-08-23T12:34:32.791Z,7.47
2022-08-23T12:37:09.563Z,7.97
2022-08-23T12:39:59.663Z,7.50
2022-08-23T12:42:36.031Z,7.88
2022-08-23T12:45:20.320Z,7.63
2022-08-23T12:48:02.563Z,7.78
2022-08-23T12:51:00.445Z,10.32
2022-08-23T12:53:31.738Z,7.50
2022-08-23T12:56:11.498Z,8.30
2022-08-23T12:58:45.652Z,6.35
2022-08-23T13:01:30.166Z,6.88
2022-08-23T13:04:19.559Z,6.43
2022-08-23T13:06:55.171Z,7.03
2022-08-23T13:09:34.191Z,8.98
2022-08-23T13:12:02.548Z,8.50
2022-08-23T13:14:41.191Z,7.53
2022-08-23T13:17:26.527Z,8.52
2022-08-23T13:20:04.275Z,13.10
2022-08-23T13:22:33.702Z,8.10
2022-08-23T13:25:29.130Z,7.57
2022-08-23T13:28:06.529Z,8.70
2022-08-23T13:30:38.003Z,7.38
2022-08-23T13:33:08.426Z,9.55
2022-08-23T13:35:44.514Z,6.60
2022-08-23T13:38:22.051Z,8.50
2022-08-23T13:41:14.091Z,18.15
2022-08-23T13:43:44.554Z,12.68
2022-08-23T13:46:26.549Z,9.98
2022-08-23T13:49:28.593Z,14.82
2022-08-23T13:52:37.876Z,9.45
2022-08-23T13:54:53.071Z,8.93
2022-08-23T13:57:22.288Z,8.52
2022-08-23T13:59:54.504Z,7.88
2022-08-23T14:02:24.310Z,8.63
2022-08-23T14:04:52.249Z,7.45
2022-08-23T14:07:20.155Z,8.10
2022-08-23T14:09:50.979Z,8.05
2022-08-23T14:12:31.869Z,8.73
2022-08-23T14:15:03.078Z,8.85
2022-08-23T14:17:38.649Z,7.53
2022-08-23T14:22:56.151Z,7.05
2022-08-23T14:25:24.068Z,7.68
2022-08-23T14:27:51.711Z,7.22
2022-08-23T14:30:29.430Z,6.38
2022-08-23T14:32:59.777Z,11.20
2022-08-23T14:35:27.670Z,7.75
2022-08-23T14:38:03.303Z,7.28
2022-08-23T14:40:31.894Z,7.28
2022-08-23T14:42:59.465Z,6.32
2022-08-23T14:45:27.445Z,6.75
2022-08-23T14:47:55.211Z,8.03
2022-08-23T14:50:22.853Z,10.25
2022-08-23T14:52:50.354Z,11.88
2022-08-23T14:55:20.212Z,8.27
2022-08-23T14:57:51.745Z,7.38
2022-08-23T15:00:19.675Z,15.85
2022-08-23T15:02:48.829Z,14.95
2022-08-23T15:05:16.877Z,10.50
2022-08-23T15:07:45.261Z,12.65
2022-08-23T15:13:20.002Z,9.20
2022-08-23T15:15:52.997Z,11.52
2022-08-23T15:18:20.893Z,8.20
2022-08-23T15:20:52.298Z,20.13
2022-08-23T15:23:21.164Z,9.10
2022-08-23T15:25:49.968Z,10.68
2022-08-23T15:28:22.044Z,9.32
2022-08-23T15:30:51.522Z,9.65
2022-08-23T15:33:24.720Z,9.25
2022-08-23T15:35:55.961Z,9.10
2022-08-23T15:38:25.917Z,10.10
2022-08-23T15:40:56.931Z,9.68
2022-08-23T15:43:25.788Z,9.52
2022-08-23T15:46:10.326Z,9.43
2022-08-23T15:48:54.774Z,9.93
2022-08-23T15:51:23.868Z,9.32
2022-08-23T15:53:52.163Z,10.32
2022-08-23T15:56:28.054Z,13.73
2022-08-23T15:58:56.267Z,12.13
2022-08-23T16:01:25.638Z,8.80
2022-08-23T16:03:53.839Z,9.85
2022-08-23T16:06:21.987Z,8.57
2022-08-23T16:08:52.826Z,13.23
2022-08-23T16:11:21.227Z,8.35
2022-08-23T16:13:49.777Z,12.13
2022-08-23T16:16:31.011Z,9.40
2022-08-23T16:19:00.256Z,12.65
2022-08-23T16:21:30.210Z,11.65
2022-08-23T16:23:58.920Z,10.45
2022-08-23T16:26:35.289Z,10.32
2022-08-23T16:29:08.590Z,11.63
2022-08-23T16:31:39.207Z,11.75
2022-08-23T16:34:12.533Z,10.23
2022-08-23T16:36:44.970Z,7.03
2022-08-23T16:39:15.500Z,9.43
2022-08-23T16:41:43.577Z,7.13
2022-08-23T16:44:11.089Z,7.57
2022-08-23T16:46:42.839Z,11.57
2022-08-23T16:49:13.644Z,7.53
2022-08-23T16:51:42.898Z,9.68
2022-08-23T16:56:40.676Z,5.93
2022-08-23T17:02:10.655Z,5.45
2022-08-23T17:04:39.114Z,6.32
2022-08-23T17:07:07.490Z,6.80
2022-08-23T17:09:34.968Z,7.07
2022-08-23T17:12:03.943Z,6.28
2022-08-23T17:14:31.481Z,5.82
2022-08-23T17:17:00.106Z,6.28
2022-08-23T17:19:27.907Z,6.13
2022-08-23T17:21:59.298Z,6.13
2022-08-23T17:24:26.855Z,11.43
2022-08-23T17:26:54.763Z,5.45
2022-08-23T17:29:22.381Z,6.57
2022-08-23T17:31:50.144Z,6.55
2022-08-23T17:34:17.931Z,8.27
2022-08-23T17:36:50.878Z,6.47
2022-08-23T17:39:24.783Z,9.73
2022-08-23T17:41:52.340Z,6.20
2022-08-23T17:44:20.511Z,7.28
2022-08-23T17:46:49.214Z,6.93
2022-08-23T17:49:18.246Z,6.05
2022-08-23T17:51:46.445Z,6.53
2022-08-23T17:54:16.130Z,8.88
2022-08-23T17:56:48.497Z,7.20
2022-08-23T17:59:21.946Z,7.10
2022-08-23T18:01:49.573Z,8.07
2022-08-23T18:04:17.223Z,6.72
2022-08-23T18:06:45.832Z,6.50
2022-08-23T18:09:13.880Z,17.57
2022-08-23T18:11:41.997Z,6.88
2022-08-23T18:14:10.783Z,7.33
2022-08-23T18:16:38.843Z,8.88
2022-08-23T18:19:10.816Z,9.85
2022-08-23T18:21:42.750Z,13.85
2022-08-23T18:24:10.937Z,15.32
2022-08-23T18:26:57.858Z,11.52
2022-08-23T18:29:26.103Z,11.10
2022-08-23T18:31:54.564Z,11.55
2022-08-23T18:34:22.264Z,11.45
2022-08-23T18:36:50.115Z,14.10
2022-08-23T18:39:17.847Z,18.25
2022-08-23T18:42:05.377Z,10.45
2022-08-23T18:44:33.317Z,13.07
2022-08-23T18:47:05.041Z,16.23
2022-08-23T18:49:35.678Z,11.85
2022-08-23T18:52:04.225Z,17.17
2022-08-23T18:54:34.141Z,12.90
2022-08-23T18:57:02.450Z,12.18
2022-08-23T18:59:31.021Z,10.95
2022-08-23T19:01:58.704Z,10.65
2022-08-23T19:04:27.544Z,12.95
2022-08-23T19:06:55.421Z,11.50
2022-08-23T19:09:23.019Z,14.25
2022-08-23T19:11:50.692Z,12.68
2022-08-23T19:14:19.421Z,11.93
2022-08-23T19:16:48.480Z,15.95
2022-08-23T19:19:18.866Z,13.68
2022-08-23T19:21:46.983Z,15.73
2022-08-23T19:24:14.827Z,11.05
2022-08-23T19:26:47.344Z,12.50
2022-08-23T19:29:18.449Z,17.67
2022-08-23T19:31:48.179Z,12.25
2022-08-23T19:34:19.398Z,11.13
2022-08-23T19:36:54.644Z,11.85
2022-08-23T19:39:29.951Z,14.55
2022-08-23T19:41:58.062Z,12.73
2022-08-23T19:44:26.639Z,11.38
2022-08-23T19:46:56.078Z,12.57
2022-08-23T19:49:24.518Z,12.82
2022-08-23T19:51:52.747Z,17.10
2022-08-23T19:54:20.602Z,11.80
2022-08-23T19:56:59.491Z,16.73
2022-08-23T19:59:35.018Z,14.55
2022-08-23T20:02:03.572Z,10.65
2022-08-23T20:04:33.335Z,10.90
2022-08-23T20:07:03.307Z,9.75
2022-08-23T20:09:34.441Z,10.40
2022-08-23T20:12:03.334Z,8.93
2022-08-23T20:14:33.296Z,9.65
2022-08-23T20:17:03.468Z,9.52
2022-08-23T20:19:31.588Z,9.10
2022-08-23T20:22:17.877Z,8.95
2022-08-23T20:24:51.947Z,9.45
2022-08-23T20:27:25.401Z,10.20
2022-08-23T20:30:01.405Z,8.73
2022-08-23T20:32:32.000Z,9.73
2022-08-23T20:35:03.050Z,10.30
2022-08-23T20:37:31.715Z,9.63
2022-08-23T20:40:00.376Z,10.55
2022-08-23T20:42:31.546Z,9.88
2022-08-23T20:45:00.317Z,12.23
2022-08-23T20:47:28.899Z,9.07
2022-08-23T20:49:56.693Z,10.48
2022-08-23T20:52:25.174Z,10.33
2022-08-23T20:54:53.526Z,9.60
2022-08-23T20:57:21.557Z,11.07
2022-08-23T20:59:49.388Z,10.32
2022-08-23T21:02:17.015Z,10.00
2022-08-23T21:04:44.834Z,10.15
2022-08-23T21:07:12.450Z,10.95
2022-08-23T21:09:43.608Z,11.02
2022-08-23T21:12:16.766Z,9.85
2022-08-23T21:14:47.827Z,10.27
2022-08-23T21:17:19.859Z,10.95
2022-08-23T21:19:52.506Z,9.98
2022-08-23T21:22:32.199Z,10.52
2022-08-23T21:25:04.365Z,7.90
2022-08-23T21:27:38.285Z,11.50
2022-08-23T21:30:11.229Z,9.57
2022-08-23T21:32:43.487Z,11.55
2022-08-23T21:35:14.388Z,8.38
2022-08-23T21:37:51.264Z,10.02
2022-08-23T21:40:25.065Z,9.75
2022-08-23T21:42:56.637Z,8.25
2022-08-23T21:45:28.634Z,10.00
2022-08-23T21:47:59.581Z,9.75
2022-08-23T21:50:34.502Z,8.27
2022-08-23T21:53:05.503Z,9.90
2022-08-23T21:55:36.883Z,7.75
2022-08-23T21:58:10.048Z,7.28
2022-08-23T22:00:43.105Z,7.35
2022-08-23T22:03:16.109Z,6.88
2022-08-23T22:05:49.843Z,8.80
2022-08-23T22:08:22.147Z,6.40
2022-08-23T22:10:58.343Z,7.45
2022-08-23T22:13:31.125Z,10.13
2022-08-23T22:16:02.035Z,7.50
2022-08-23T22:18:36.062Z,8.85
2022-08-23T22:21:08.205Z,7.93
2022-08-23T22:23:41.975Z,8.25
2022-08-23T22:26:14.184Z,8.02
2022-08-23T22:28:44.868Z,9.48
2022-08-23T22:31:15.310Z,8.65
2022-08-23T22:33:43.626Z,9.40
2022-08-23T22:36:16.614Z,8.73
2022-08-23T22:38:45.665Z,9.23
2022-08-23T22:41:25.777Z,9.50
2022-08-23T22:43:59.385Z,12.25
2022-08-23T22:46:30.266Z,7.85
2022-08-23T22:48:57.901Z,10.52
2022-08-23T22:51:32.801Z,8.43
2022-08-23T22:54:05.323Z,8.98
2022-08-23T22:56:48.106Z,8.73
2022-08-23T22:59:18.486Z,9.20
2022-08-23T23:01:50.700Z,10.73
2022-08-23T23:04:22.405Z,11.25
2022-08-23T23:06:51.168Z,10.73
2022-08-23T23:09:18.682Z,11.48
2022-08-23T23:11:46.854Z,9.95
2022-08-23T23:14:16.447Z,11.82
2022-08-23T23:16:45.540Z,10.40
2022-08-23T23:19:32.081Z,9.88
2022-08-23T23:22:00.062Z,10.95
2022-08-23T23:24:32.045Z,9.25
2022-08-23T23:27:00.951Z,10.93
2022-08-23T23:29:30.748Z,9.38
2022-08-23T23:31:59.042Z,10.95
2022-08-23T23:34:28.006Z,9.75
2022-08-23T23:36:57.815Z,10.25
2022-08-23T23:39:27.354Z,10.93
2022-08-23T23:41:55.610Z,10.48
2022-08-23T23:44:30.910Z,9.75
2022-08-23T23:47:01.538Z,11.63
2022-08-23T23:49:32.034Z,11.30
2022-08-23T23:52:05.668Z,11.05
2022-08-23T23:54:35.702Z,11.93
2022-08-23T23:57:05.708Z,12.25
2022-08-23T23:59:34.198Z,11.80
